Time,TemperatureF,DewpointF,PressureIn,WindDirection,WindDirectionDegrees,WindSpeedMPH,WindSpeedGustMPH,Humidity,HourlyPrecipIn,Conditions,Clouds,dailyrainin,SoftwareType,DateUTC
2013-03-17 00:04:00,55.2,30.7,29.77,North,351,1.0,1.0,39,0.00,,,0.00,VWS V14.01,2013-03-17 07:04:00,
2013-03-17 00:09:00,55.4,30.2,29.77,North,355,1.0,3.0,38,0.00,,,0.00,VWS V14.01,2013-03-17 07:09:00,
2013-03-17 00:14:00,55.7,30.5,29.77,North,355,1.0,3.0,38,0.00,,,0.00,VWS V14.01,2013-03-17 07:14:00,
2013-03-17 00:19:00,55.6,30.4,29.77,North,355,0.0,1.0,38,0.00,,,0.00,VWS V14.01,2013-03-17 07:19:00,
2013-03-17 00:24:00,54.7,30.2,29.77,North,355,1.0,2.0,39,0.00,,,0.00,VWS V14.01,2013-03-17 07:24:00,
2013-03-17 00:29:00,54.1,30.9,29.77,North,355,0.0,2.0,41,0.00,,,0.00,VWS V14.01,2013-03-17 07:29:00,
2013-03-17 00:34:00,53.8,30.1,29.77,NW,322,0.0,3.0,40,0.00,,,0.00,VWS V14.01,2013-03-17 07:34:00,
2013-03-17 00:39:00,53.8,30.7,29.77,NW,318,0.0,1.0,41,0.00,,,0.00,VWS V14.01,2013-03-17 07:39:00,
2013-03-17 00:44:00,54.6,29.5,29.77,NW,318,0.0,1.0,38,0.00,,,0.00,VWS V14.01,2013-03-17 07:44:00,
2013-03-17 00:49:00,55.1,28.6,29.77,NW,318,0.0,0.0,36,0.00,,,0.00,VWS V14.01,2013-03-17 07:49:00,
2013-03-17 00:54:00,55.5,29.0,29.77,NW,318,0.0,0.0,36,0.00,,,0.00,VWS V14.01,2013-03-17 07:54:00,
2013-03-17 01:00:00,55.4,28.9,29.77,NW,318,0.0,1.0,36,0.00,,,0.00,VWS V14.01,2013-03-17 08:00:00,
2013-03-17 01:05:00,54.8,29.7,29.77,NW,318,0.0,0.0,38,0.00,,,0.00,VWS V14.01,2013-03-17 08:05:00,
2013-03-17 01:10:00,53.7,29.4,29.77,NW,318,0.0,1.0,39,0.00,,,0.00,VWS V14.01,2013-03-17 08:10:00,
2013-03-17 01:15:00,53.3,29.0,29.77,NW,318,0.0,1.0,39,0.00,,,0.00,VWS V14.01,2013-03-17 08:15:00,
2013-03-17 01:20:00,52.9,29.2,29.77,NW,318,0.0,0.0,40,0.00,,,0.00,VWS V14.01,2013-03-17 08:20:00,
2013-03-17 01:25:00,52.8,29.2,29.77,NW,318,2.0,3.0,40,0.00,,,0.00,VWS V14.01,2013-03-17 08:25:00,
2013-03-17 01:30:00,53.8,28.8,29.77,NW,318,2.0,2.0,38,0.00,,,0.00,VWS V14.01,2013-03-17 08:30:00,
2013-03-17 01:35:00,54.0,28.3,29.77,NW,318,0.0,2.0,37,0.00,,,0.00,VWS V14.01,2013-03-17 08:35:00,
2013-03-17 01:40:00,54.3,26.5,29.77,NW,318,0.0,3.0,34,0.00,,,0.00,VWS V14.01,2013-03-17 08:40:00,
2013-03-17 01:45:00,55.3,26.7,29.77,NW,318,0.0,1.0,33,0.00,,,0.00,VWS V14.01,2013-03-17 08:45:00,
2013-03-17 01:50:00,55.7,25.5,29.77,NW,318,0.0,1.0,31,0.00,,,0.00,VWS V14.01,2013-03-17 08:50:00,
2013-03-17 01:55:00,55.6,27.7,29.77,NW,318,0.0,0.0,34,0.00,,,0.00,VWS V14.01,2013-03-17 08:55:00,
2013-03-17 02:00:00,54.4,28.0,29.77,NW,318,0.0,0.0,36,0.00,,,0.00,VWS V14.01,2013-03-17 09:00:00,
2013-03-17 02:05:00,53.7,26.7,29.77,NW,318,0.0,0.0,35,0.00,,,0.00,VWS V14.01,2013-03-17 09:05:00,
2013-03-17 02:10:00,53.4,27.8,29.77,NW,318,0.0,0.0,37,0.00,,,0.00,VWS V14.01,2013-03-17 09:10:00,
2013-03-17 02:15:00,53.3,27.0,29.77,NW,318,0.0,1.0,36,0.00,,,0.00,VWS V14.01,2013-03-17 09:15:00,
2013-03-17 02:20:00,54.3,25.8,29.77,NW,318,0.0,1.0,33,0.00,,,0.00,VWS V14.01,2013-03-17 09:20:00,
2013-03-17 02:25:00,55.5,24.6,29.77,NW,318,0.0,0.0,30,0.00,,,0.00,VWS V14.01,2013-03-17 09:25:00,
2013-03-17 02:30:00,55.6,26.2,29.77,NW,318,0.0,0.0,32,0.00,,,0.00,VWS V14.01,2013-03-17 09:30:00,
2013-03-17 02:35:00,55.8,24.9,29.76,NW,319,3.0,3.0,30,0.00,,,0.00,VWS V14.01,2013-03-17 09:35:00,
2013-03-17 02:40:00,56.5,24.6,29.76,NW,319,2.0,3.0,29,0.00,,,0.00,VWS V14.01,2013-03-17 09:40:00,
2013-03-17 02:45:00,55.7,29.2,29.76,NW,319,0.0,2.0,36,0.00,,,0.00,VWS V14.01,2013-03-17 09:45:00,
2013-03-17 02:50:00,53.7,27.4,29.76,NW,319,0.0,1.0,36,0.00,,,0.00,VWS V14.01,2013-03-17 09:50:00,
2013-03-17 02:55:00,52.9,26.7,29.76,NW,319,0.0,0.0,36,0.00,,,0.00,VWS V14.01,2013-03-17 09:55:00,
2013-03-17 03:00:00,52.8,25.9,29.75,NW,319,1.0,1.0,35,0.00,,,0.00,VWS V14.01,2013-03-17 10:00:00,
2013-03-17 03:05:00,53.2,24.9,29.76,NW,319,0.0,1.0,33,0.00,,,0.00,VWS V14.01,2013-03-17 10:05:00,
2013-03-17 03:10:00,53.9,24.7,29.75,NW,319,0.0,2.0,32,0.00,,,0.00,VWS V14.01,2013-03-17 10:10:00,
2013-03-17 03:15:00,54.7,24.7,29.75,NW,319,0.0,0.0,31,0.00,,,0.00,VWS V14.01,2013-03-17 10:15:00,
2013-03-17 03:20:00,55.0,24.2,29.75,NW,319,0.0,0.0,30,0.00,,,0.00,VWS V14.01,2013-03-17 10:20:00,
2013-03-17 03:25:00,55.3,24.4,29.75,NW,319,0.0,2.0,30,0.00,,,0.00,VWS V14.01,2013-03-17 10:25:00,
2013-03-17 03:30:00,55.5,24.6,29.75,NW,319,0.0,1.0,30,0.00,,,0.00,VWS V14.01,2013-03-17 10:30:00,
2013-03-17 03:35:00,55.5,24.6,29.75,NW,319,0.0,1.0,30,0.00,,,0.00,VWS V14.01,2013-03-17 10:35:00,
2013-03-17 03:40:00,55.7,24.8,29.75,NW,319,0.0,1.0,30,0.00,,,0.00,VWS V14.01,2013-03-17 10:40:00,
2013-03-17 03:45:00,55.6,24.7,29.75,NW,319,0.0,1.0,30,0.00,,,0.00,VWS V14.01,2013-03-17 10:45:00,
2013-03-17 03:50:00,54.2,27.9,29.75,NW,319,0.0,1.0,36,0.00,,,0.00,VWS V14.01,2013-03-17 10:50:00,
2013-03-17 03:55:00,52.7,28.5,29.75,NW,319,0.0,1.0,39,0.00,,,0.00,VWS V14.01,2013-03-17 10:55:00,
2013-03-17 04:00:00,51.6,28.1,29.75,NW,319,0.0,1.0,40,0.00,,,0.00,VWS V14.01,2013-03-17 11:00:00,
2013-03-17 04:05:00,52.0,26.5,29.75,NW,319,0.0,2.0,37,0.00,,,0.00,VWS V14.01,2013-03-17 11:05:00,
2013-03-17 04:10:00,52.4,26.9,29.75,NW,319,0.0,1.0,37,0.00,,,0.00,VWS V14.01,2013-03-17 11:10:00,
2013-03-17 04:15:00,51.7,26.3,29.75,NW,319,0.0,1.0,37,0.00,,,0.00,VWS V14.01,2013-03-17 11:15:00,
2013-03-17 04:20:00,51.9,25.1,29.75,NW,319,2.0,2.0,35,0.00,,,0.00,VWS V14.01,2013-03-17 11:20:00,
2013-03-17 04:25:00,52.6,26.4,29.75,NW,319,0.0,1.0,36,0.00,,,0.00,VWS V14.01,2013-03-17 11:25:00,
2013-03-17 04:30:00,53.1,26.2,29.75,NW,319,1.0,1.0,35,0.00,,,0.00,VWS V14.01,2013-03-17 11:30:00,
2013-03-17 04:35:00,52.6,26.4,29.75,NW,319,0.0,2.0,36,0.00,,,0.00,VWS V14.01,2013-03-17 11:35:00,
2013-03-17 04:40:00,52.3,25.5,29.75,NW,319,0.0,2.0,35,0.00,,,0.00,VWS V14.01,2013-03-17 11:40:00,
2013-03-17 04:45:00,51.9,27.1,29.75,NW,319,0.0,2.0,38,0.00,,,0.00,VWS V14.01,2013-03-17 11:45:00,
2013-03-17 04:50:00,51.9,26.5,29.75,NW,319,1.0,2.0,37,0.00,,,0.00,VWS V14.01,2013-03-17 11:50:00,
2013-03-17 04:55:00,51.8,26.4,29.75,NW,319,0.0,2.0,37,0.00,,,0.00,VWS V14.01,2013-03-17 11:55:00,
2013-03-17 05:00:00,51.9,27.1,29.75,NW,319,0.0,1.0,38,0.00,,,0.00,VWS V14.01,2013-03-17 12:00:00,
2013-03-17 05:05:00,52.1,26.6,29.75,NW,319,0.0,1.0,37,0.00,,,0.00,VWS V14.01,2013-03-17 12:05:00,
2013-03-17 05:10:00,51.5,26.8,29.75,NW,319,1.0,2.0,38,0.00,,,0.00,VWS V14.01,2013-03-17 12:10:00,
2013-03-17 05:15:00,53.6,26.6,29.75,NW,319,2.0,2.0,35,0.00,,,0.00,VWS V14.01,2013-03-17 12:15:00,
2013-03-17 05:20:00,54.5,27.4,29.75,NW,319,0.0,3.0,35,0.00,,,0.00,VWS V14.01,2013-03-17 12:20:00,
2013-03-17 05:25:00,53.9,27.6,29.75,NW,319,0.0,1.0,36,0.00,,,0.00,VWS V14.01,2013-03-17 12:25:00,
2013-03-17 05:30:00,53.5,27.2,29.75,NW,319,0.0,1.0,36,0.00,,,0.00,VWS V14.01,2013-03-17 12:30:00,
2013-03-17 05:35:00,52.9,26.7,29.76,NW,319,3.0,3.0,36,0.00,,,0.00,VWS V14.01,2013-03-17 12:35:00,
2013-03-17 05:40:00,52.1,26.6,29.76,NW,319,1.0,3.0,37,0.00,,,0.00,VWS V14.01,2013-03-17 12:40:00,
2013-03-17 05:45:00,51.8,27.0,29.76,NW,319,3.0,3.0,38,0.00,,,0.00,VWS V14.01,2013-03-17 12:45:00,
2013-03-17 05:50:00,52.0,26.5,29.76,NW,319,1.0,2.0,37,0.00,,,0.00,VWS V14.01,2013-03-17 12:50:00,
2013-03-17 05:55:00,52.0,26.5,29.77,NW,319,2.0,2.0,37,0.00,,,0.00,VWS V14.01,2013-03-17 12:55:00,
2013-03-17 06:00:00,52.5,26.3,29.77,NW,319,0.0,3.0,36,0.00,,,0.00,VWS V14.01,2013-03-17 13:00:00,
2013-03-17 06:05:00,53.5,26.5,29.77,NW,319,0.0,1.0,35,0.00,,,0.00,VWS V14.01,2013-03-17 13:05:00,
2013-03-17 06:10:00,54.0,27.0,29.77,NW,319,0.0,1.0,35,0.00,,,0.00,VWS V14.01,2013-03-17 13:10:00,
2013-03-17 06:15:00,54.0,27.0,29.78,NW,319,0.0,2.0,35,0.00,,,0.00,VWS V14.01,2013-03-17 13:15:00,
2013-03-17 06:20:00,54.5,26.7,29.78,NW,319,2.0,2.0,34,0.00,,,0.00,VWS V14.01,2013-03-17 13:20:00,
2013-03-17 06:25:00,55.0,26.5,29.78,NW,319,0.0,3.0,33,0.00,,,0.00,VWS V14.01,2013-03-17 13:25:00,
2013-03-17 06:30:00,54.2,26.5,29.78,NW,319,0.0,1.0,34,0.00,,,0.00,VWS V14.01,2013-03-17 13:30:00,
2013-03-17 06:35:00,53.7,27.4,29.77,NW,319,0.0,0.0,36,0.00,,,0.00,VWS V14.01,2013-03-17 13:35:00,
2013-03-17 06:40:00,52.6,29.0,29.78,NW,319,0.0,0.0,40,0.00,,,0.00,VWS V14.01,2013-03-17 13:40:00,
2013-03-17 06:45:00,51.5,30.3,29.78,NW,319,0.0,0.0,44,0.00,,,0.00,VWS V14.01,2013-03-17 13:45:00,
2013-03-17 06:50:00,51.2,28.9,29.78,NW,319,0.0,0.0,42,0.00,,,0.00,VWS V14.01,2013-03-17 13:50:00,
2013-03-17 06:55:00,50.9,28.1,29.78,NW,319,0.0,1.0,41,0.00,,,0.00,VWS V14.01,2013-03-17 13:55:00,
2013-03-17 07:00:00,51.8,27.0,29.78,NW,319,0.0,1.0,38,0.00,,,0.00,VWS V14.01,2013-03-17 14:00:00,
2013-03-17 07:05:00,53.4,25.8,29.78,NW,319,0.0,0.0,34,0.00,,,0.00,VWS V14.01,2013-03-17 14:05:00,
2013-03-17 07:10:00,55.0,26.5,29.78,NW,319,0.0,2.0,33,0.00,,,0.00,VWS V14.01,2013-03-17 14:10:00,
2013-03-17 07:15:00,56.7,24.8,29.78,NW,319,0.0,1.0,29,0.00,,,0.00,VWS V14.01,2013-03-17 14:15:00,
2013-03-17 07:20:00,57.3,26.2,29.78,NW,319,0.0,1.0,30,0.00,,,0.00,VWS V14.01,2013-03-17 14:20:00,
2013-03-17 07:25:00,57.3,26.2,29.79,WNW,301,3.0,4.0,30,0.00,,,0.00,VWS V14.01,2013-03-17 14:25:00,
2013-03-17 07:30:00,58.1,24.3,29.79,West,273,0.0,5.0,27,0.00,,,0.00,VWS V14.01,2013-03-17 14:30:00,
2013-03-17 07:35:00,58.8,24.9,29.79,West,273,0.0,3.0,27,0.00,,,0.00,VWS V14.01,2013-03-17 14:35:00,
2013-03-17 07:40:00,59.4,25.4,29.79,West,273,3.0,3.0,27,0.00,,,0.00,VWS V14.01,2013-03-17 14:40:00,
2013-03-17 07:45:00,60.2,24.3,29.79,West,273,0.0,5.0,25,0.00,,,0.00,VWS V14.01,2013-03-17 14:45:00,
2013-03-17 07:50:00,60.8,23.8,29.79,West,273,0.0,4.0,24,0.00,,,0.00,VWS V14.01,2013-03-17 14:50:00,
2013-03-17 07:55:00,61.4,23.3,29.80,West,272,0.0,4.0,23,0.00,,,0.00,VWS V14.01,2013-03-17 14:55:00,
2013-03-17 08:00:00,62.2,25.0,29.80,West,273,0.0,3.0,24,0.00,,,0.00,VWS V14.01,2013-03-17 15:00:00,
2013-03-17 08:05:00,62.9,24.6,29.80,West,273,0.0,2.0,23,0.00,,,0.00,VWS V14.01,2013-03-17 15:05:00,
2013-03-17 08:10:00,63.6,24.1,29.80,West,273,0.0,3.0,22,0.00,,,0.00,VWS V14.01,2013-03-17 15:10:00,
2013-03-17 08:15:00,64.5,24.8,29.80,West,272,3.0,4.0,22,0.00,,,0.00,VWS V14.01,2013-03-17 15:15:00,
2013-03-17 08:20:00,65.1,24.2,29.81,West,273,2.0,5.0,21,0.00,,,0.00,VWS V14.01,2013-03-17 15:20:00,
2013-03-17 08:25:00,65.9,23.7,29.81,West,273,2.0,4.0,20,0.00,,,0.00,VWS V14.01,2013-03-17 15:25:00,
2013-03-17 08:30:00,66.6,24.3,29.81,West,272,0.0,5.0,20,0.00,,,0.00,VWS V14.01,2013-03-17 15:30:00,
2013-03-17 08:35:00,67.8,24.1,29.81,West,273,4.0,5.0,19,0.00,,,0.00,VWS V14.01,2013-03-17 15:35:00,
2013-03-17 08:40:00,68.3,25.7,29.81,West,263,1.0,5.0,20,0.00,,,0.00,VWS V14.01,2013-03-17 15:40:00,
2013-03-17 08:45:00,68.1,25.5,29.81,West,264,1.0,5.0,20,0.00,,,0.00,VWS V14.01,2013-03-17 15:45:00,
2013-03-17 08:50:00,68.5,25.9,29.82,West,263,0.0,6.0,20,0.00,,,0.00,VWS V14.01,2013-03-17 15:50:00,
2013-03-17 08:55:00,68.5,25.9,29.82,WSW,252,4.0,5.0,20,0.00,,,0.00,VWS V14.01,2013-03-17 15:55:00,
2013-03-17 09:00:00,68.8,26.1,29.82,WSW,246,4.0,6.0,20,0.00,,,0.00,VWS V14.01,2013-03-17 16:00:00,
2013-03-17 09:05:00,69.1,25.1,29.82,SW,236,7.0,7.0,19,0.00,,,0.00,VWS V14.01,2013-03-17 16:05:00,
2013-03-17 09:10:00,69.4,24.1,29.83,WSW,241,4.0,8.0,18,0.00,,,0.00,VWS V14.01,2013-03-17 16:10:00,
2013-03-17 09:15:00,69.4,24.1,29.83,WSW,257,1.0,6.0,18,0.00,,,0.00,VWS V14.01,2013-03-17 16:15:00,
2013-03-17 09:20:00,70.1,24.7,29.83,WSW,242,4.0,8.0,18,0.00,,,0.00,VWS V14.01,2013-03-17 16:20:00,
2013-03-17 09:25:00,70.4,24.9,29.83,SW,227,0.0,9.0,18,0.00,,,0.00,VWS V14.01,2013-03-17 16:25:00,
2013-03-17 09:30:00,70.8,25.2,29.84,SW,227,1.0,7.0,18,0.00,,,0.00,VWS V14.01,2013-03-17 16:30:00,
2013-03-17 09:35:00,71.9,23.3,29.83,SW,231,1.0,7.0,16,0.00,,,0.00,VWS V14.01,2013-03-17 16:35:00,
2013-03-17 09:40:00,72.0,23.4,29.84,SW,230,6.0,10.0,16,0.00,,,0.00,VWS V14.01,2013-03-17 16:40:00,
2013-03-17 09:45:00,72.6,25.3,29.84,SW,229,4.0,7.0,17,0.00,,,0.00,VWS V14.01,2013-03-17 16:45:00,
2013-03-17 09:50:00,72.9,24.1,29.84,SW,225,4.0,9.0,16,0.00,,,0.00,VWS V14.01,2013-03-17 16:50:00,
2013-03-17 09:55:00,73.4,24.5,29.84,SSW,213,7.0,9.0,16,0.00,,,0.00,VWS V14.01,2013-03-17 16:55:00,
2013-03-17 10:00:00,73.8,23.3,29.84,SW,214,2.0,9.0,15,0.00,,,0.00,VWS V14.01,2013-03-17 17:00:00,
2013-03-17 10:06:00,73.9,23.4,29.84,SSW,212,3.0,8.0,15,0.00,,,0.00,VWS V14.01,2013-03-17 17:06:00,
2013-03-17 10:11:00,74.2,22.0,29.84,SSW,211,2.0,9.0,14,0.00,,,0.00,VWS V14.01,2013-03-17 17:11:00,
2013-03-17 10:16:00,74.1,21.9,29.83,SSW,212,7.0,10.0,14,0.00,,,0.00,VWS V14.01,2013-03-17 17:16:00,
2013-03-17 10:21:00,74.0,23.5,29.83,SW,220,7.0,12.0,15,0.00,,,0.00,VWS V14.01,2013-03-17 17:21:00,
2013-03-17 10:26:00,74.2,22.0,29.83,SW,225,6.0,12.0,14,0.00,,,0.00,VWS V14.01,2013-03-17 17:26:00,
2013-03-17 10:31:00,74.4,22.1,29.84,SW,236,4.0,12.0,14,0.00,,,0.00,VWS V14.01,2013-03-17 17:31:00,
2013-03-17 10:36:00,74.6,23.9,29.84,SW,219,8.0,11.0,15,0.00,,,0.00,VWS V14.01,2013-03-17 17:36:00,
2013-03-17 10:41:00,74.9,22.5,29.83,SW,226,11.0,13.0,14,0.00,,,0.00,VWS V14.01,2013-03-17 17:41:00,
2013-03-17 10:46:00,75.3,22.9,29.83,SW,221,5.0,11.0,14,0.00,,,0.00,VWS V14.01,2013-03-17 17:46:00,
2013-03-17 10:51:00,75.5,24.7,29.83,SW,215,5.0,9.0,15,0.00,,,0.00,VWS V14.01,2013-03-17 17:51:00,
2013-03-17 10:56:00,75.9,25.0,29.83,SSW,209,6.0,8.0,15,0.00,,,0.00,VWS V14.01,2013-03-17 17:56:00,
2013-03-17 11:01:00,76.2,23.6,29.83,SSW,203,5.0,14.0,14,0.00,,,0.00,VWS V14.01,2013-03-17 18:01:00,
2013-03-17 11:06:00,75.9,23.3,29.83,West,267,4.0,10.0,14,0.00,,,0.00,VWS V14.01,2013-03-17 18:06:00,
2013-03-17 11:11:00,75.9,23.3,29.82,SW,223,7.0,15.0,14,0.00,,,0.00,VWS V14.01,2013-03-17 18:11:00,
2013-03-17 11:16:00,76.4,23.7,29.82,SSW,203,5.0,16.0,14,0.00,,,0.00,VWS V14.01,2013-03-17 18:16:00,
2013-03-17 11:21:00,76.4,23.7,29.82,SSW,196,1.0,11.0,14,0.00,,,0.00,VWS V14.01,2013-03-17 18:21:00,
2013-03-17 11:26:00,76.7,24.0,29.82,SW,230,4.0,10.0,14,0.00,,,0.00,VWS V14.01,2013-03-17 18:26:00,
2013-03-17 11:31:00,77.0,24.2,29.81,SW,227,10.0,14.0,14,0.00,,,0.00,VWS V14.01,2013-03-17 18:31:00,
2013-03-17 11:36:00,77.8,24.8,29.81,WSW,246,3.0,10.0,14,0.00,,,0.00,VWS V14.01,2013-03-17 18:36:00,
2013-03-17 11:41:00,78.4,23.5,29.81,SW,221,9.0,16.0,13,0.00,,,0.00,VWS V14.01,2013-03-17 18:41:00,
2013-03-17 11:46:00,78.4,23.5,29.80,West,269,5.0,12.0,13,0.00,,,0.00,VWS V14.01,2013-03-17 18:46:00,
2013-03-17 11:51:00,78.5,23.6,29.80,SSW,213,5.0,14.0,13,0.00,,,0.00,VWS V14.01,2013-03-17 18:51:00,
2013-03-17 11:56:00,78.9,25.7,29.80,SW,217,9.0,13.0,14,0.00,,,0.00,VWS V14.01,2013-03-17 18:56:00,
2013-03-17 12:01:00,79.1,24.1,29.80,SSW,196,9.0,23.0,13,0.00,,,0.00,VWS V14.01,2013-03-17 19:01:00,
2013-03-17 12:06:00,79.3,24.2,29.80,West,267,6.0,12.0,13,0.00,,,0.00,VWS V14.01,2013-03-17 19:06:00,
2013-03-17 12:11:00,79.7,22.6,29.79,WSW,237,4.0,16.0,12,0.00,,,0.00,VWS V14.01,2013-03-17 19:11:00,
2013-03-17 12:16:00,80.2,23.0,29.79,South,172,5.0,16.0,12,0.00,,,0.00,VWS V14.01,2013-03-17 19:16:00,
2013-03-17 12:21:00,79.9,20.8,29.80,SW,229,8.0,16.0,11,0.00,,,0.00,VWS V14.01,2013-03-17 19:21:00,
2013-03-17 12:26:00,79.7,22.6,29.80,SSW,212,10.0,21.0,12,0.00,,,0.00,VWS V14.01,2013-03-17 19:26:00,
2013-03-17 12:31:00,79.6,20.5,29.80,WNW,295,10.0,19.0,11,0.00,,,0.00,VWS V14.01,2013-03-17 19:31:00,
2013-03-17 12:36:00,79.5,22.5,29.80,WSW,249,18.0,19.0,12,0.00,,,0.00,VWS V14.01,2013-03-17 19:36:00,
2013-03-17 12:41:00,79.8,20.7,29.80,SW,231,9.0,24.0,11,0.00,,,0.00,VWS V14.01,2013-03-17 19:41:00,
2013-03-17 12:46:00,79.8,20.7,29.79,SW,221,21.0,22.0,11,0.00,,,0.00,VWS V14.01,2013-03-17 19:46:00,
2013-03-17 12:51:00,79.4,20.4,29.79,SW,215,5.0,13.0,11,0.00,,,0.00,VWS V14.01,2013-03-17 19:51:00,
2013-03-17 12:56:00,79.8,20.7,29.80,WNW,284,8.0,18.0,11,0.00,,,0.00,VWS V14.01,2013-03-17 19:56:00,
2013-03-17 13:01:00,80.0,20.8,29.78,SW,227,12.0,18.0,11,0.00,,,0.00,VWS V14.01,2013-03-17 20:01:00,
2013-03-17 13:06:00,80.3,21.1,29.78,WNW,295,8.0,12.0,11,0.00,,,0.00,VWS V14.01,2013-03-17 20:06:00,
2013-03-17 13:11:00,80.3,18.8,29.78,NW,323,14.0,20.0,10,0.00,,,0.00,VWS V14.01,2013-03-17 20:11:00,
2013-03-17 13:16:00,79.9,18.5,29.78,SW,218,13.0,13.0,10,0.00,,,0.00,VWS V14.01,2013-03-17 20:16:00,
2013-03-17 13:26:00,80.9,16.8,29.78,SSW,213,9.0,16.0,9,0.00,,,0.00,VWS V14.01,2013-03-17 20:26:00,
2013-03-17 13:31:00,80.8,19.2,29.77,SSW,200,6.0,18.0,10,0.00,,,0.00,VWS V14.01,2013-03-17 20:31:00,
2013-03-17 13:36:00,80.7,16.7,29.77,WNW,292,11.0,19.0,9,0.00,,,0.00,VWS V14.01,2013-03-17 20:36:00,
2013-03-17 13:41:00,80.3,18.8,29.77,NNW,329,13.0,14.0,10,0.00,,,0.00,VWS V14.01,2013-03-17 20:41:00,
2013-03-17 13:46:00,80.5,19.0,29.77,WSW,239,7.0,13.0,10,0.00,,,0.00,VWS V14.01,2013-03-17 20:46:00,
2013-03-17 13:52:00,80.4,18.9,29.76,WSW,257,8.0,15.0,10,0.00,,,0.00,VWS V14.01,2013-03-17 20:52:00,
2013-03-17 13:57:00,79.8,20.7,29.76,West,264,12.0,12.0,11,0.00,,,0.00,VWS V14.01,2013-03-17 20:57:00,
2013-03-17 14:02:00,80.0,20.8,29.76,NW,308,10.0,12.0,11,0.00,,,0.00,VWS V14.01,2013-03-17 21:02:00,
2013-03-17 14:07:00,79.8,20.7,29.76,WSW,255,7.0,9.0,11,0.00,,,0.00,VWS V14.01,2013-03-17 21:07:00,
2013-03-17 14:12:00,80.2,21.0,29.76,North,5,4.0,18.0,11,0.00,,,0.00,VWS V14.01,2013-03-17 21:12:00,
2013-03-17 14:17:00,80.0,18.6,29.76,WNW,284,9.0,13.0,10,0.00,,,0.00,VWS V14.01,2013-03-17 21:17:00,
2013-03-17 14:22:00,80.0,20.8,29.76,WNW,298,13.0,13.0,11,0.00,,,0.00,VWS V14.01,2013-03-17 21:22:00,
2013-03-17 14:27:00,80.4,21.1,29.76,SW,217,5.0,16.0,11,0.00,,,0.00,VWS V14.01,2013-03-17 21:27:00,
2013-03-17 14:32:00,79.6,20.5,29.76,SW,223,7.0,12.0,11,0.00,,,0.00,VWS V14.01,2013-03-17 21:32:00,
2013-03-17 14:37:00,79.5,22.5,29.76,SW,226,7.0,10.0,12,0.00,,,0.00,VWS V14.01,2013-03-17 21:37:00,
2013-03-17 14:42:00,80.0,20.8,29.76,WNW,294,10.0,16.0,11,0.00,,,0.00,VWS V14.01,2013-03-17 21:42:00,
2013-03-17 14:47:00,79.6,20.5,29.76,SW,225,3.0,13.0,11,0.00,,,0.00,VWS V14.01,2013-03-17 21:47:00,
2013-03-17 14:52:00,79.1,22.2,29.76,NW,305,10.0,14.0,12,0.00,,,0.00,VWS V14.01,2013-03-17 21:52:00,
2013-03-17 14:57:00,79.2,22.3,29.76,West,275,7.0,22.0,12,0.00,,,0.00,VWS V14.01,2013-03-17 21:57:00,
2013-03-17 15:02:00,79.3,24.2,29.76,West,264,5.0,12.0,13,0.00,,,0.00,VWS V14.01,2013-03-17 22:02:00,
2013-03-17 15:07:00,79.6,22.6,29.76,West,281,16.0,16.0,12,0.00,,,0.00,VWS V14.01,2013-03-17 22:07:00,
2013-03-17 15:12:00,79.2,24.2,29.76,WSW,239,11.0,13.0,13,0.00,,,0.00,VWS V14.01,2013-03-17 22:12:00,
2013-03-17 15:17:00,78.9,23.9,29.75,WNW,286,7.0,11.0,13,0.00,,,0.00,VWS V14.01,2013-03-17 22:17:00,
2013-03-17 15:22:00,79.2,24.2,29.75,SW,221,4.0,10.0,13,0.00,,,0.00,VWS V14.01,2013-03-17 22:22:00,
2013-03-17 15:27:00,79.3,24.2,29.76,WSW,248,8.0,12.0,13,0.00,,,0.00,VWS V14.01,2013-03-17 22:27:00,
2013-03-17 15:32:00,79.5,24.4,29.76,WNW,282,3.0,13.0,13,0.00,,,0.00,VWS V14.01,2013-03-17 22:32:00,
2013-03-17 15:37:00,79.3,24.2,29.76,WNW,297,8.0,14.0,13,0.00,,,0.00,VWS V14.01,2013-03-17 22:37:00,
2013-03-17 15:42:00,79.2,24.2,29.75,NW,304,6.0,10.0,13,0.00,,,0.00,VWS V14.01,2013-03-17 22:42:00,
2013-03-17 15:47:00,79.2,22.3,29.75,WNW,283,2.0,12.0,12,0.00,,,0.00,VWS V14.01,2013-03-17 22:47:00,
2013-03-17 15:52:00,79.4,26.1,29.76,WSW,256,3.0,8.0,14,0.00,,,0.00,VWS V14.01,2013-03-17 22:52:00,
2013-03-17 15:57:00,79.3,24.2,29.75,WNW,287,8.0,11.0,13,0.00,,,0.00,VWS V14.01,2013-03-17 22:57:00,
2013-03-17 16:02:00,79.4,26.1,29.75,SW,221,0.0,8.0,14,0.00,,,0.00,VWS V14.01,2013-03-17 23:02:00,
2013-03-17 16:07:00,79.3,24.2,29.76,NNW,340,7.0,10.0,13,0.00,,,0.00,VWS V14.01,2013-03-17 23:07:00,
2013-03-17 16:12:00,79.0,25.8,29.76,West,259,8.0,10.0,14,0.00,,,0.00,VWS V14.01,2013-03-17 23:12:00,
2013-03-17 16:17:00,78.9,25.7,29.76,WNW,291,7.0,12.0,14,0.00,,,0.00,VWS V14.01,2013-03-17 23:17:00,
2013-03-17 16:22:00,79.1,25.9,29.76,SW,229,7.0,13.0,14,0.00,,,0.00,VWS V14.01,2013-03-17 23:22:00,
2013-03-17 16:27:00,79.0,24.0,29.76,West,267,3.0,7.0,13,0.00,,,0.00,VWS V14.01,2013-03-17 23:27:00,
2013-03-17 16:32:00,78.9,23.9,29.76,NNW,333,6.0,8.0,13,0.00,,,0.00,VWS V14.01,2013-03-17 23:32:00,
2013-03-17 16:37:00,78.8,25.6,29.76,WSW,240,7.0,9.0,14,0.00,,,0.00,VWS V14.01,2013-03-17 23:37:00,
2013-03-17 16:42:00,78.3,23.5,29.76,SW,214,4.0,8.0,13,0.00,,,0.00,VWS V14.01,2013-03-17 23:42:00,
2013-03-17 16:47:00,77.9,24.9,29.76,SSW,213,3.0,8.0,14,0.00,,,0.00,VWS V14.01,2013-03-17 23:47:00,
2013-03-17 16:52:00,77.8,24.8,29.76,WSW,257,0.0,5.0,14,0.00,,,0.00,VWS V14.01,2013-03-17 23:52:00,
2013-03-17 16:57:00,77.6,24.7,29.77,WSW,253,2.0,7.0,14,0.00,,,0.00,VWS V14.01,2013-03-17 23:57:00,
2013-03-17 17:02:00,77.2,24.4,29.76,West,262,6.0,6.0,14,0.00,,,0.00,VWS V14.01,2013-03-18 00:02:00,
2013-03-17 17:07:00,76.8,24.0,29.77,SW,215,4.0,8.0,14,0.00,,,0.00,VWS V14.01,2013-03-18 00:07:00,
2013-03-17 17:16:00,76.4,23.7,29.77,West,279,6.0,9.0,14,0.00,,,0.00,VWS V14.01,2013-03-18 00:16:00,
2013-03-17 17:21:00,76.2,23.6,29.77,SW,221,7.0,9.0,14,0.00,,,0.00,VWS V14.01,2013-03-18 00:21:00,
2013-03-17 17:26:00,76.0,23.4,29.77,WNW,296,3.0,9.0,14,0.00,,,0.00,VWS V14.01,2013-03-18 00:26:00,
2013-03-17 17:31:00,75.9,23.3,29.78,WSW,257,0.0,7.0,14,0.00,,,0.00,VWS V14.01,2013-03-18 00:31:00,
2013-03-17 17:36:00,75.7,23.2,29.78,West,276,0.0,6.0,14,0.00,,,0.00,VWS V14.01,2013-03-18 00:36:00,
2013-03-17 17:41:00,75.7,23.2,29.78,WNW,298,1.0,9.0,14,0.00,,,0.00,VWS V14.01,2013-03-18 00:41:00,
2013-03-17 17:46:00,75.9,23.3,29.78,WNW,293,6.0,8.0,14,0.00,,,0.00,VWS V14.01,2013-03-18 00:46:00,
2013-03-17 17:51:00,76.1,23.5,29.78,WNW,298,1.0,7.0,14,0.00,,,0.00,VWS V14.01,2013-03-18 00:51:00,
2013-03-17 17:56:00,76.2,23.6,29.78,West,260,5.0,8.0,14,0.00,,,0.00,VWS V14.01,2013-03-18 00:56:00,
2013-03-17 18:04:00,76.1,25.1,29.78,West,275,1.0,2.0,15,0.00,,,0.00,VWS V14.01,2013-03-18 01:04:00,
2013-03-17 18:09:00,76.0,25.1,29.78,West,275,2.0,5.0,15,0.00,,,0.00,VWS V14.01,2013-03-18 01:09:00,
2013-03-17 18:14:00,75.6,23.1,29.78,West,275,0.0,2.0,14,0.00,,,0.00,VWS V14.01,2013-03-18 01:14:00,
2013-03-17 18:19:00,75.3,22.9,29.78,WSW,257,6.0,8.0,14,0.00,,,0.00,VWS V14.01,2013-03-18 01:19:00,
2013-03-17 18:24:00,74.9,24.2,29.78,West,262,0.0,3.0,15,0.00,,,0.00,VWS V14.01,2013-03-18 01:24:00,
2013-03-17 18:29:00,74.4,23.8,29.78,WSW,254,0.0,1.0,15,0.00,,,0.00,VWS V14.01,2013-03-18 01:29:00,
2013-03-17 18:34:00,73.9,23.4,29.78,NW,306,0.0,1.0,15,0.00,,,0.00,VWS V14.01,2013-03-18 01:34:00,
2013-03-17 18:39:00,73.4,24.5,29.78,NW,306,0.0,0.0,16,0.00,,,0.00,VWS V14.01,2013-03-18 01:39:00,
2013-03-17 18:44:00,73.0,24.2,29.79,NW,306,0.0,2.0,16,0.00,,,0.00,VWS V14.01,2013-03-18 01:44:00,
2013-03-17 18:49:00,72.6,23.9,29.79,NW,306,0.0,1.0,16,0.00,,,0.00,VWS V14.01,2013-03-18 01:49:00,
2013-03-17 18:54:00,72.2,23.5,29.79,NW,306,0.0,1.0,16,0.00,,,0.00,VWS V14.01,2013-03-18 01:54:00,
2013-03-17 18:59:00,71.8,24.7,29.79,NW,306,0.0,1.0,17,0.00,,,0.00,VWS V14.01,2013-03-18 01:59:00,
2013-03-17 19:04:00,71.4,24.4,29.79,NW,306,0.0,1.0,17,0.00,,,0.00,VWS V14.01,2013-03-18 02:04:00,
2013-03-17 19:09:00,70.9,25.3,29.80,NW,306,0.0,1.0,18,0.00,,,0.00,VWS V14.01,2013-03-18 02:09:00,
2013-03-17 19:14:00,70.2,24.7,29.80,NW,306,0.0,2.0,18,0.00,,,0.00,VWS V14.01,2013-03-18 02:14:00,
2013-03-17 19:19:00,69.4,25.4,29.80,NNW,329,0.0,4.0,19,0.00,,,0.00,VWS V14.01,2013-03-18 02:19:00,
2013-03-17 19:24:00,68.5,25.9,29.80,NNW,328,1.0,3.0,20,0.00,,,0.00,VWS V14.01,2013-03-18 02:24:00,
2013-03-17 19:29:00,67.7,26.4,29.80,NNW,328,0.0,3.0,21,0.00,,,0.00,VWS V14.01,2013-03-18 02:29:00,
2013-03-17 19:34:00,66.8,26.8,29.80,NNW,329,0.0,3.0,22,0.00,,,0.00,VWS V14.01,2013-03-18 02:34:00,
2013-03-17 19:39:00,66.0,27.2,29.81,NNW,328,0.0,1.0,23,0.00,,,0.00,VWS V14.01,2013-03-18 02:39:00,
2013-03-17 19:44:00,65.4,27.7,29.81,NNW,329,0.0,1.0,24,0.00,,,0.00,VWS V14.01,2013-03-18 02:44:00,
2013-03-17 19:49:00,64.8,27.2,29.81,NNW,328,0.0,1.0,24,0.00,,,0.00,VWS V14.01,2013-03-18 02:49:00,
2013-03-17 19:54:00,64.3,27.8,29.81,NNW,329,0.0,1.0,25,0.00,,,0.00,VWS V14.01,2013-03-18 02:54:00,
2013-03-17 19:59:00,63.7,27.2,29.81,NNW,329,1.0,3.0,25,0.00,,,0.00,VWS V14.01,2013-03-18 02:59:00,
2013-03-17 20:04:00,63.1,27.7,29.81,NNW,329,1.0,3.0,26,0.00,,,0.00,VWS V14.01,2013-03-18 03:04:00,
2013-03-17 20:09:00,62.7,27.4,29.81,NNW,329,2.0,3.0,26,0.00,,,0.00,VWS V14.01,2013-03-18 03:09:00,
2013-03-17 20:14:00,62.5,26.2,29.81,NNW,329,2.0,4.0,25,0.00,,,0.00,VWS V14.01,2013-03-18 03:14:00,
2013-03-17 20:19:00,62.5,26.2,29.82,NNW,333,4.0,5.0,25,0.00,,,0.00,VWS V14.01,2013-03-18 03:19:00,
2013-03-17 20:24:00,62.6,26.3,29.82,NNW,333,2.0,4.0,25,0.00,,,0.00,VWS V14.01,2013-03-18 03:24:00,
2013-03-17 20:29:00,62.6,26.3,29.82,NNW,333,3.0,3.0,25,0.00,,,0.00,VWS V14.01,2013-03-18 03:29:00,
2013-03-17 20:34:00,62.5,26.2,29.82,NNW,335,3.0,3.0,25,0.00,,,0.00,VWS V14.01,2013-03-18 03:34:00,
2013-03-17 20:39:00,61.0,27.7,29.82,ENE,67,4.0,5.0,28,0.00,,,0.00,VWS V14.01,2013-03-18 03:39:00,
2013-03-17 20:44:00,60.2,27.9,29.83,ENE,65,2.0,4.0,29,0.00,,,0.00,VWS V14.01,2013-03-18 03:44:00,
2013-03-17 20:49:00,59.8,27.5,29.83,NE,53,1.0,5.0,29,0.00,,,0.00,VWS V14.01,2013-03-18 03:49:00,
2013-03-17 20:54:00,59.8,27.5,29.83,NE,49,4.0,4.0,29,0.00,,,0.00,VWS V14.01,2013-03-18 03:54:00,
2013-03-17 20:59:00,59.7,27.4,29.83,NE,49,2.0,3.0,29,0.00,,,0.00,VWS V14.01,2013-03-18 03:59:00,
2013-03-17 21:01:00,59.8,27.5,29.83,NE,48,2.0,4.0,29,0.00,,,0.00,VWS V14.01,2013-03-18 04:01:00,
2013-03-17 21:04:00,59.8,27.5,29.83,NE,48,2.0,3.0,29,0.00,,,0.00,VWS V14.01,2013-03-18 04:04:00,
2013-03-17 21:06:00,59.8,27.5,29.84,NE,48,2.0,3.0,29,0.00,,,0.00,VWS V14.01,2013-03-18 04:06:00,
2013-03-17 21:09:00,59.7,27.4,29.84,NE,48,4.0,4.0,29,0.00,,,0.00,VWS V14.01,2013-03-18 04:09:00,
2013-03-17 21:14:00,59.6,27.3,29.84,NE,48,1.0,3.0,29,0.00,,,0.00,VWS V14.01,2013-03-18 04:14:00,
2013-03-17 21:19:00,59.5,28.1,29.84,NE,47,3.0,3.0,30,0.00,,,0.00,VWS V14.01,2013-03-18 04:19:00,
2013-03-17 21:24:00,59.1,27.7,29.84,NE,46,2.0,4.0,30,0.00,,,0.00,VWS V14.01,2013-03-18 04:24:00,
2013-03-17 21:29:00,58.8,28.3,29.84,NE,46,0.0,3.0,31,0.00,,,0.00,VWS V14.01,2013-03-18 04:29:00,
2013-03-17 21:34:00,58.6,28.9,29.84,NE,46,0.0,2.0,32,0.00,,,0.00,VWS V14.01,2013-03-18 04:34:00,
2013-03-17 21:39:00,58.1,28.4,29.85,NE,46,0.0,1.0,32,0.00,,,0.00,VWS V14.01,2013-03-18 04:39:00,
2013-03-17 21:44:00,57.5,28.6,29.85,NE,46,1.0,3.0,33,0.00,,,0.00,VWS V14.01,2013-03-18 04:44:00,
2013-03-17 21:49:00,57.1,28.3,29.85,NE,46,0.0,3.0,33,0.00,,,0.00,VWS V14.01,2013-03-18 04:49:00,
2013-03-17 21:54:00,56.6,29.3,29.86,NE,48,3.0,4.0,35,0.00,,,0.00,VWS V14.01,2013-03-18 04:54:00,
2013-03-17 21:59:00,56.0,28.8,29.86,NE,48,2.0,4.0,35,0.00,,,0.00,VWS V14.01,2013-03-18 04:59:00,
2013-03-17 22:04:00,55.5,29.0,29.86,NE,47,2.0,4.0,36,0.00,,,0.00,VWS V14.01,2013-03-18 05:04:00,
2013-03-17 22:09:00,55.1,29.3,29.86,NE,42,2.0,3.0,37,0.00,,,0.00,VWS V14.01,2013-03-18 05:09:00,
2013-03-17 22:14:00,54.7,29.6,29.86,NNE,26,4.0,4.0,38,0.00,,,0.00,VWS V14.01,2013-03-18 05:14:00,
2013-03-17 22:19:00,54.0,29.6,29.86,NNE,13,2.0,5.0,39,0.00,,,0.00,VWS V14.01,2013-03-18 05:19:00,
2013-03-17 22:24:00,53.5,29.8,29.86,NNE,13,0.0,3.0,40,0.00,,,0.00,VWS V14.01,2013-03-18 05:24:00,
2013-03-17 22:29:00,53.1,29.4,29.86,NNE,13,3.0,3.0,40,0.00,,,0.00,VWS V14.01,2013-03-18 05:29:00,
2013-03-17 22:34:00,52.8,28.5,29.86,NNE,13,0.0,5.0,39,0.00,,,0.00,VWS V14.01,2013-03-18 05:34:00,
2013-03-17 22:39:00,52.7,29.1,29.86,NNE,13,1.0,2.0,40,0.00,,,0.00,VWS V14.01,2013-03-18 05:39:00,
2013-03-17 22:44:00,52.6,29.0,29.86,NNE,13,2.0,4.0,40,0.00,,,0.00,VWS V14.01,2013-03-18 05:44:00,
2013-03-17 22:49:00,52.7,28.5,29.86,NNE,13,1.0,3.0,39,0.00,,,0.00,VWS V14.01,2013-03-18 05:49:00,
2013-03-17 22:54:00,52.8,28.5,29.86,NNE,13,0.0,2.0,39,0.00,,,0.00,VWS V14.01,2013-03-18 05:54:00,
2013-03-17 22:59:00,53.1,28.2,29.86,NNE,13,0.0,3.0,38,0.00,,,0.00,VWS V14.01,2013-03-18 05:59:00,
2013-03-17 23:04:00,53.3,28.4,29.86,NNE,13,0.0,1.0,38,0.00,,,0.00,VWS V14.01,2013-03-18 06:04:00,
2013-03-17 23:09:00,53.5,29.2,29.87,NNE,13,0.0,1.0,39,0.00,,,0.00,VWS V14.01,2013-03-18 06:09:00,
2013-03-17 23:14:00,53.6,28.6,29.86,NNE,13,0.0,4.0,38,0.00,,,0.00,VWS V14.01,2013-03-18 06:14:00,
2013-03-17 23:19:00,53.8,28.8,29.87,NNE,13,0.0,2.0,38,0.00,,,0.00,VWS V14.01,2013-03-18 06:19:00,
2013-03-17 23:24:00,53.9,28.2,29.86,NNE,13,0.0,3.0,37,0.00,,,0.00,VWS V14.01,2013-03-18 06:24:00,
2013-03-17 23:29:00,54.1,29.1,29.86,NNE,13,0.0,2.0,38,0.00,,,0.00,VWS V14.01,2013-03-18 06:29:00,
2013-03-17 23:34:00,54.1,29.1,29.86,NNE,13,0.0,0.0,38,0.00,,,0.00,VWS V14.01,2013-03-18 06:34:00,
2013-03-17 23:39:00,54.1,29.1,29.86,NNE,13,0.0,0.0,38,0.00,,,0.00,VWS V14.01,2013-03-18 06:39:00,
2013-03-17 23:44:00,54.0,29.0,29.86,NNE,13,0.0,0.0,38,0.00,,,0.00,VWS V14.01,2013-03-18 06:44:00,
2013-03-17 23:49:00,53.9,28.2,29.86,NNE,13,0.0,1.0,37,0.00,,,0.00,VWS V14.01,2013-03-18 06:49:00,
2013-03-17 23:54:00,53.9,28.2,29.86,NNE,13,0.0,0.0,37,0.00,,,0.00,VWS V14.01,2013-03-18 06:54:00,
2013-03-17 23:59:00,53.9,28.2,29.86,NNE,13,0.0,0.0,37,0.00,,,0.00,VWS V14.01,2013-03-18 06:59:00,